Sibenik, Croatia

3:15 PM CEST on September 23, 2014 (GMT +0200)
Sibenik-Vidici | Change Station
CLOSE
Current Station
Personal Weather Station
Location: Sibenik, Croatia
Elevation: 95 ft
Nearby Weather Stations

Elev 95 ft 43.72 °N, 15.91 °E | Updated 17 seconds ago

Clear
Clear
70.7 °F
Feels Like 77 °F
N
8.1
Wind Variable Wind from NNW
Gusts 8.1 mph

Today
High -- | Low -- °F
--% Chance of Precip.
Yesterday
High -- | Low -- °F
Precip. -- in
6:44 AM 6:52 PM
Waning Crescent, 0% visible
Pressure 30.04 in
Visibility -9999.0 miles
Clouds
Heat Index 77 °F
Dew Point 44 °F
Humidity 39%
Rainfall 0.77 in
Snow Depth Not available.
UV Not available.
Pollen Not available.
Air Quality Not available.
Flu Activity Not available.
METAR LDSP 231300Z 07007KT 010V120 CAVOK 21/05 Q1017 NOSIG

More Conditions Fewer Conditions

Pressure 30.04 in
Visibility -9999.0 miles
Clouds
Heat Index 77 °F
Dew Point 44 °F
Humidity 39%
Rainfall 0.77 in
Snow Depth Not available.
UV Not available.
Pollen Not available.
Air Quality Not available.
Flu Activity Not available.
METAR LDSP 231300Z 07007KT 010V120 CAVOK 21/05 Q1017 NOSIG

More Conditions Fewer Conditions

10-Day Weather Forecast

Almanac

Astronomy

Sep. 23, 2014 Rise Set
Actual Time 6:44 AM CEST 6:52 PM CEST
Civil Twilight 6:15 AM CEST 7:20 PM CEST
Nautical Twilight 5:42 AM CEST 7:54 PM CEST
Astronomical Twilight 5:07 AM CEST 8:28 PM CEST
Moon 5:51 AM CEST 6:22 PM CEST
Length of Visible Light 13h 05m
Length of Day
12h 08m
Tomorrow will be 2m 59s shorter.
Waning Crescent, 0% of the Moon is Illuminated
Today
Waning Crescent
Sep 24
New
Oct 1
First Quarter
Oct 8
Full
Oct 15
Last Quarter

Yesterday's Extremes

Country Highs Country Lows

Community

WunderPhotos

Upload Photos

1,755,666 photos uploaded!

WunderBlogs® & News

Nearby

Snow Depth

Not available.

Earthquake Activity

City Distance Mag. Time & Date
No recent earthquake activity has been reported nearby.
Minimum magnitude displayed is 2.5.

Coastal Water Temperatures

Place Temperature
No Stations Reporting

Nearby Weather Stations